Time;durP1;ratioP1;P1;durP2;ratioP2;P2;SDS_P1;SDS_P2;PMS_P1;PMS_P2;Temp;Humidity;BMP_temperature;BMP_pressure;BME280_temperature;BME280_humidity;BME280_pressure;Samples;Min_cycle;Max_cycle;Signal;HPM_P1;HPM_P2
2021/06/23 00:00:55;;;;;;;4.07;3.73;;;17.20;99.90;;;;;;4938316;29;20444;-88
2021/06/23 00:03:23;;;;;;;7.23;3.80;;;;;;;;;;4935557;29;20463;-85
2021/06/23 00:05:50;;;;;;;5.80;3.50;;;;;;;;;;4937419;29;20531;-88
2021/06/23 00:08:17;;;;;;;7.40;4.63;;;17.00;99.90;;;;;;4938009;29;20803;-90
2021/06/23 00:10:44;;;;;;;6.80;3.83;;;;;;;;;;4937162;29;20455;-88
2021/06/23 00:13:11;;;;;;;4.20;3.80;;;;;;;;;;4938289;29;20464;-89
2021/06/23 00:15:39;;;;;;;4.27;3.90;;;17.10;99.90;;;;;;4938296;29;20533;-92
2021/06/23 00:18:08;;;;;;;4.43;3.50;;;17.20;99.90;;;;;;4938475;29;20452;-88
2021/06/23 00:20:35;;;;;;;5.40;3.83;;;17.10;99.90;;;;;;4938621;29;20931;-88
2021/06/23 00:23:03;;;;;;;4.20;3.90;;;17.20;99.90;;;;;;4938390;29;20460;-92
2021/06/23 00:25:30;;;;;;;4.77;3.90;;;16.10;99.90;;;;;;4937441;29;20456;-87
2021/06/23 00:27:57;;;;;;;7.90;4.23;;;17.20;99.90;;;;;;4937715;29;20514;-93
2021/06/23 00:30:24;;;;;;;7.10;4.70;;;17.00;99.90;;;;;;4938209;29;20463;-89
2021/06/23 00:32:53;;;;;;;4.70;4.30;;;17.50;99.90;;;;;;4937647;29;20933;-87
2021/06/23 00:35:22;;;;;;;4.77;4.07;;;17.40;99.90;;;;;;4933179;29;20486;-87
2021/06/23 00:37:49;;;;;;;6.90;4.33;;;17.20;99.90;;;;;;4937741;29;20460;-87
2021/06/23 00:40:16;;;;;;;4.27;3.83;;;16.90;99.90;;;;;;4934835;29;20956;-89
2021/06/23 00:42:44;;;;;;;8.40;3.97;;;17.30;99.90;;;;;;4936664;29;20463;-89
2021/06/23 00:45:15;;;;;;;5.20;4.23;;;16.60;99.90;;;;;;4937763;29;20444;-90
2021/06/23 00:47:46;;;;;;;4.37;3.90;;;16.50;99.90;;;;;;4937781;29;20503;-91
2021/06/23 00:50:15;;;;;;;7.00;5.00;;;17.00;99.90;;;;;;4933492;29;20898;-90
2021/06/23 00:52:44;;;;;;;5.60;4.70;;;17.20;99.90;;;;;;4937481;29;20467;-88
2021/06/23 00:55:20;;;;;;;5.70;5.00;;;17.20;99.90;;;;;;4937581;29;20463;-87
2021/06/23 00:57:50;;;;;;;6.00;5.40;;;17.20;99.90;;;;;;4934959;29;20455;-88
2021/06/23 01:00:19;;;;;;;6.50;5.73;;;17.00;99.90;;;;;;4937396;29;20470;-87
2021/06/23 01:02:47;;;;;;;7.40;5.83;;;17.10;99.90;;;;;;4933404;29;20452;-87
2021/06/23 01:05:14;;;;;;;6.10;5.50;;;;;;;;;;4934330;29;20460;-91
2021/06/23 01:07:41;;;;;;;6.93;6.33;;;;;;;;;;4937274;29;20506;-88
2021/06/23 01:10:12;;;;;;;7.43;6.83;;;17.00;99.90;;;;;;4937360;29;20449;-89
2021/06/23 01:12:55;;;;;;;8.20;7.10;;;17.10;99.90;;;;;;4936211;29;20444;-87
2021/06/23 01:15:23;;;;;;;9.60;7.10;;;;;;;;;;4937032;29;20466;-87
2021/06/23 01:17:51;;;;;;;12.30;6.97;;;17.40;99.90;;;;;;4936885;29;20471;-93
2021/06/23 01:20:18;;;;;;;8.80;7.50;;;17.00;99.90;;;;;;4937069;29;20459;-89
2021/06/23 01:22:46;;;;;;;9.07;8.17;;;17.00;99.90;;;;;;4931940;29;20515;-88
2021/06/23 01:25:15;;;;;;;9.20;7.90;;;17.00;99.90;;;;;;4937123;29;20456;-88
2021/06/23 01:27:44;;;;;;;9.87;8.87;;;17.00;99.90;;;;;;4935418;29;20503;-87
2021/06/23 01:30:13;;;;;;;9.07;8.30;;;16.80;99.90;;;;;;4936785;29;20488;-90
2021/06/23 01:32:40;;;;;;;8.73;7.50;;;17.10;99.90;;;;;;4933805;29;20511;-90
2021/06/23 01:35:08;;;;;;;9.40;8.60;;;16.80;99.90;;;;;;4936554;29;20567;-87
2021/06/23 01:37:36;;;;;;;7.37;6.73;;;17.00;99.90;;;;;;4934071;29;20456;-89
2021/06/23 01:40:06;;;;;;;8.93;8.00;;;17.00;99.90;;;;;;4936804;29;20943;-87
2021/06/23 01:42:33;;;;;;;9.53;8.63;;;;;;;;;;4930280;29;20852;-87
2021/06/23 01:45:02;;;;;;;9.57;8.67;;;16.80;99.90;;;;;;4936543;29;20451;-87
2021/06/23 01:47:29;;;;;;;9.43;7.90;;;16.80;99.90;;;;;;4936560;29;20503;-88
2021/06/23 01:49:56;;;;;;;9.93;8.10;;;17.00;99.90;;;;;;4936474;29;20456;-87
2021/06/23 01:52:23;;;;;;;12.53;8.70;;;16.80;99.90;;;;;;4936712;29;20452;-89
2021/06/23 01:54:52;;;;;;;9.10;8.30;;;16.90;99.90;;;;;;4933648;29;20451;-89
2021/06/23 01:57:22;;;;;;;8.67;7.77;;;16.60;99.90;;;;;;4935106;29;20498;-88
2021/06/23 01:59:50;;;;;;;8.83;8.03;;;;;;;;;;4936639;29;20484;-88
2021/06/23 02:02:25;;;;;;;9.80;8.57;;;16.80;99.90;;;;;;4936348;29;20456;-88
2021/06/23 02:04:53;;;;;;;10.43;8.00;;;16.80;99.90;;;;;;4936316;29;20558;-89
2021/06/23 02:07:46;;;;;;;12.50;9.03;;;16.80;99.90;;;;;;4933613;29;20515;-92
2021/06/23 02:10:29;;;;;;;9.70;8.70;;;16.80;99.90;;;;;;4933347;29;20464;-93
2021/06/23 02:13:32;;;;;;;10.60;8.93;;;16.70;99.90;;;;;;4936360;29;20447;-88
2021/06/23 02:16:09;;;;;;;10.27;9.27;;;16.80;99.90;;;;;;4936375;29;20928;-87
2021/06/23 02:18:36;;;;;;;12.17;8.33;;;16.40;99.90;;;;;;4936239;29;20462;-89
2021/06/23 02:21:05;;;;;;;10.10;9.10;;;16.50;99.90;;;;;;4936200;29;20470;-90
2021/06/23 02:23:34;;;;;;;10.17;9.27;;;16.50;99.90;;;;;;4933556;29;20519;-87
2021/06/23 02:26:01;;;;;;;28.40;10.93;;;;;;;;;;4935098;29;20455;-87
2021/06/23 02:28:28;;;;;;;10.90;9.80;;;;;;;;;;4935940;29;20503;-90
2021/06/23 02:30:57;;;;;;;11.30;10.23;;;16.70;99.90;;;;;;4935664;29;20452;-87
2021/06/23 02:33:25;;;;;;;10.17;9.10;;;16.50;99.90;;;;;;4933291;29;20780;-89
2021/06/23 02:35:55;;;;;;;9.83;8.93;;;16.50;99.90;;;;;;4935887;29;20499;-90
2021/06/23 02:38:22;;;;;;;10.83;9.77;;;;;;;;;;4936169;29;20463;-88
2021/06/23 02:40:50;;;;;;;10.60;9.30;;;16.50;99.90;;;;;;4934702;29;20459;-87
2021/06/23 02:43:17;;;;;;;9.77;8.87;;;;;;;;;;4933289;29;20448;-92
2021/06/23 02:45:44;;;;;;;8.40;7.60;;;16.60;99.90;;;;;;4935954;29;20507;-89
2021/06/23 02:48:11;;;;;;;7.47;6.80;;;16.40;99.90;;;;;;4935790;29;20506;-87
2021/06/23 02:50:47;;;;;;;7.10;6.37;;;16.20;99.90;;;;;;4935959;29;20451;-89
2021/06/23 02:53:14;;;;;;;7.80;7.00;;;16.50;99.90;;;;;;4934270;29;20459;-88
2021/06/23 02:55:42;;;;;;;7.13;6.53;;;16.30;99.90;;;;;;4934823;29;20475;-89
2021/06/23 02:58:09;;;;;;;7.23;6.53;;;16.40;99.90;;;;;;4935895;29;20452;-89
2021/06/23 03:00:37;;;;;;;7.53;6.53;;;;;;;;;;4936204;29;20504;-88
2021/06/23 03:03:05;;;;;;;7.43;6.30;;;17.30;99.90;;;;;;4936055;29;20455;-89
2021/06/23 03:05:32;;;;;;;10.43;6.80;;;;;;;;;;4935771;29;20455;-89
2021/06/23 03:08:00;;;;;;;19.40;8.70;;;16.20;99.90;;;;;;4932866;29;20492;-87
2021/06/23 03:10:27;;;;;;;6.37;5.77;;;;;;;;;;4931305;29;20995;-87
2021/06/23 03:12:54;;;;;;;4.83;4.43;;;;;;;;;;4936098;29;20459;-88
2021/06/23 03:15:21;;;;;;;7.67;5.10;;;16.10;99.90;;;;;;4936067;29;20480;-90
2021/06/23 03:17:48;;;;;;;7.07;4.93;;;16.20;99.90;;;;;;4935980;29;20966;-87
2021/06/23 03:20:16;;;;;;;4.67;4.27;;;16.20;99.90;;;;;;4935726;29;20459;-88
2021/06/23 03:22:43;;;;;;;4.97;3.60;;;16.10;99.90;;;;;;4935806;29;20804;-87
2021/06/23 03:25:12;;;;;;;4.30;3.90;;;16.20;99.90;;;;;;4935924;29;20448;-87
2021/06/23 03:27:40;;;;;;;5.93;4.47;;;;;;;;;;4934507;29;20860;-89
2021/06/23 03:30:08;;;;;;;7.50;4.80;;;16.00;99.90;;;;;;4935826;29;20451;-90
2021/06/23 03:32:35;;;;;;;4.40;4.00;;;;;;;;;;4931290;29;20463;-88
2021/06/23 03:35:02;;;;;;;4.43;4.03;;;16.10;99.90;;;;;;4935611;29;20472;-87
2021/06/23 03:37:29;;;;;;;4.80;4.40;;;16.10;99.90;;;;;;4932682;29;20448;-88
2021/06/23 03:39:56;;;;;;;7.30;4.10;;;;;;;;;;4935753;29;20447;-89
2021/06/23 03:42:25;;;;;;;4.00;3.70;;;16.00;99.90;;;;;;4936639;29;20447;-88
2021/06/23 03:44:52;;;;;;;4.77;4.30;;;16.20;99.90;;;;;;4935934;29;20456;-88
2021/06/23 03:47:18;;;;;;;4.43;4.03;;;16.20;99.90;;;;;;4939216;29;20861;-88
2021/06/23 03:49:46;;;;;;;5.33;3.80;;;;;;;;;;4939043;29;20471;-88
2021/06/23 03:52:13;;;;;;;4.03;3.73;;;;;;;;;;4938848;29;20459;-87
2021/06/23 03:54:40;;;;;;;5.10;4.60;;;16.50;99.90;;;;;;4939096;29;20455;-87
2021/06/23 03:57:07;;;;;;;3.70;3.40;;;16.30;99.90;;;;;;4938078;29;20459;-87
2021/06/23 03:59:35;;;;;;;4.50;4.00;;;16.40;99.90;;;;;;4933502;29;20967;-88
2021/06/23 04:02:03;;;;;;;6.80;3.70;;;16.50;99.90;;;;;;4938611;29;20460;-88
2021/06/23 04:04:30;;;;;;;3.60;3.30;;;16.40;99.90;;;;;;4938533;29;20460;-88
2021/06/23 04:06:57;;;;;;;4.30;3.00;;;;;;;;;;4935741;29;20460;-88
2021/06/23 04:09:23;;;;;;;3.47;3.20;;;16.20;99.90;;;;;;4935737;29;21025;-89
2021/06/23 04:11:51;;;;;;;8.60;3.93;;;;;;;;;;4937395;29;20940;-89
2021/06/23 04:14:18;;;;;;;3.50;3.20;;;16.40;99.90;;;;;;4935456;29;20457;-87
2021/06/23 04:16:46;;;;;;;6.40;4.23;;;16.30;99.90;;;;;;4938272;29;20452;-88
2021/06/23 04:19:13;;;;;;;7.97;3.93;;;16.20;99.90;;;;;;4938421;29;20459;-88
2021/06/23 04:21:40;;;;;;;4.43;3.50;;;16.30;99.90;;;;;;4934475;29;20959;-88
2021/06/23 04:24:08;;;;;;;4.17;3.77;;;16.40;99.90;;;;;;4933407;29;20794;-89
2021/06/23 04:26:35;;;;;;;5.80;4.17;;;;;;;;;;4936966;29;20452;-88
2021/06/23 04:29:02;;;;;;;4.77;4.30;;;16.20;99.90;;;;;;4937949;29;20511;-87
2021/06/23 04:31:29;;;;;;;4.40;4.10;;;16.30;99.90;;;;;;4938050;29;20463;-92
2021/06/23 04:33:57;;;;;;;6.13;4.20;;;16.70;99.90;;;;;;4937713;29;20488;-88
2021/06/23 04:36:24;;;;;;;4.10;3.80;;;16.50;99.90;;;;;;4938156;29;20444;-90
2021/06/23 04:38:51;;;;;;;3.77;3.47;;;16.50;99.90;;;;;;4932825;29;20455;-87
2021/06/23 04:41:18;;;;;;;3.77;3.47;;;;;;;;;;4936402;29;20448;-88
2021/06/23 04:43:45;;;;;;;3.80;3.20;;;16.60;99.90;;;;;;4935129;29;20848;-88
2021/06/23 04:46:12;;;;;;;4.20;3.10;;;16.80;99.90;;;;;;4937590;29;20901;-89
2021/06/23 04:48:39;;;;;;;2.97;2.67;;;16.80;99.90;;;;;;4937850;29;20503;-90
2021/06/23 04:51:07;;;;;;;2.43;2.20;;;16.90;99.90;;;;;;4937557;29;20467;-87
2021/06/23 04:53:34;;;;;;;3.23;2.13;;;;;;;;;;4936908;29;20475;-87
2021/06/23 04:56:01;;;;;;;1.90;1.73;;;17.00;99.90;;;;;;4936235;29;20460;-88
2021/06/23 04:58:29;;;;;;;2.73;1.57;;;;;;;;;;4938074;29;20456;-88
2021/06/23 05:00:56;;;;;;;1.87;1.77;;;17.10;99.90;;;;;;4934082;29;20455;-88
2021/06/23 05:03:23;;;;;;;2.97;1.70;;;;;;;;;;4932607;29;20821;-86
2021/06/23 05:05:50;;;;;;;2.80;1.63;;;17.10;99.90;;;;;;4937643;29;21157;-88
2021/06/23 05:08:18;;;;;;;1.87;1.60;;;17.30;99.90;;;;;;4938041;29;20502;-87
2021/06/23 05:10:45;;;;;;;1.70;1.53;;;17.10;99.90;;;;;;4936466;29;20467;-89
2021/06/23 05:13:12;;;;;;;2.40;1.50;;;17.40;99.90;;;;;;4934573;29;20814;-88
2021/06/23 05:15:38;;;;;;;2.70;1.60;;;17.20;99.90;;;;;;4936963;29;20456;-88
2021/06/23 05:18:06;;;;;;;3.17;1.40;;;;;;;;;;4938027;29;20440;-89
2021/06/23 05:20:33;;;;;;;1.90;1.50;;;;;;;;;;4935564;29;20443;-89
2021/06/23 05:23:00;;;;;;;2.50;1.40;;;;;;;;;;4940240;29;20452;-90
2021/06/23 05:25:29;;;;;;;1.87;1.70;;;18.00;99.90;;;;;;4937590;29;20452;-87
2021/06/23 05:27:56;;;;;;;1.77;1.60;;;;;;;;;;4933315;29;20488;-90
2021/06/23 05:30:23;;;;;;;2.00;1.53;;;;;;;;;;4935015;29;20485;-89
2021/06/23 05:32:50;;;;;;;1.63;1.53;;;18.40;99.90;;;;;;4937476;29;20459;-89
2021/06/23 05:35:17;;;;;;;1.53;1.30;;;;;;;;;;4932492;29;20472;-89
2021/06/23 05:37:44;;;;;;;1.60;1.50;;;18.90;99.90;;;;;;4934605;29;21031;-89
2021/06/23 05:40:12;;;;;;;1.33;1.20;;;19.20;99.90;;;;;;4937104;29;20455;-89
2021/06/23 05:42:41;;;;;;;1.57;1.27;;;19.70;99.90;;;;;;4931820;29;20459;-89
2021/06/23 05:45:09;;;;;;;2.00;1.50;;;19.90;99.90;;;;;;4933223;29;20452;-89
2021/06/23 05:47:36;;;;;;;1.70;1.60;;;19.50;99.90;;;;;;4932953;29;20459;-91
2021/06/23 05:50:04;;;;;;;2.70;1.53;;;;;;;;;;4937656;29;20452;-86
2021/06/23 05:52:31;;;;;;;4.00;1.70;;;20.50;99.90;;;;;;4939116;29;20447;-92
2021/06/23 05:54:58;;;;;;;2.10;1.90;;;20.80;99.90;;;;;;4937328;29;20449;-92
2021/06/23 05:57:25;;;;;;;2.13;1.90;;;21.20;99.90;;;;;;4936980;29;20566;-88
2021/06/23 05:59:53;;;;;;;1.50;1.40;;;20.80;99.90;;;;;;4933808;29;20793;-88
2021/06/23 06:02:20;;;;;;;3.53;1.90;;;;;;;;;;4936440;29;20448;-88
2021/06/23 06:04:47;;;;;;;2.37;1.60;;;21.40;99.90;;;;;;4934386;29;20448;-88
2021/06/23 06:07:14;;;;;;;2.80;1.70;;;21.70;99.90;;;;;;4945384;29;20473;-89
2021/06/23 06:09:41;;;;;;;3.10;2.00;;;;;;;;;;4936382;29;20866;-89
2021/06/23 06:12:09;;;;;;;2.87;1.33;;;22.40;99.90;;;;;;4936809;29;20948;-92
2021/06/23 06:14:36;;;;;;;2.07;1.70;;;22.70;99.90;;;;;;4880150;29;20559;-88
2021/06/23 06:17:05;;;;;;;3.57;1.63;;;22.40;99.90;;;;;;4881689;29;20458;-93
2021/06/23 06:19:39;;;;;;;1.97;1.77;;;22.50;99.90;;;;;;4908798;23;20441;-93
2021/06/23 06:22:06;;;;;;;2.43;1.90;;;;;;;;;;4958627;29;20458;-93
2021/06/23 06:24:33;;;;;;;2.93;1.93;;;;;;;;;;4970077;29;20461;-91
2021/06/23 06:27:00;;;;;;;5.27;2.30;;;;;;;;;;4960408;29;20923;-91
2021/06/23 06:29:28;;;;;;;2.03;1.53;;;;;;;;;;4959326;29;20490;-94
2021/06/23 06:32:16;;;;;;;2.17;1.97;;;22.30;99.90;;;;;;4904411;29;20478;-93
2021/06/23 06:34:44;;;;;;;1.93;1.83;;;;;;;;;;4891031;29;20503;-92
2021/06/23 06:37:11;;;;;;;2.13;1.93;;;;;;;;;;4880412;29;20459;-93
2021/06/23 06:39:38;;;;;;;2.17;1.97;;;23.80;99.90;;;;;;4878763;29;20458;-90
2021/06/23 06:42:06;;;;;;;2.30;2.10;;;24.20;99.90;;;;;;4878227;29;20451;-91
2021/06/23 06:44:33;;;;;;;2.30;2.00;;;;;;;;;;4879413;29;20461;-93
2021/06/23 06:47:01;;;;;;;2.73;1.80;;;24.20;99.90;;;;;;4880967;29;20465;-92
2021/06/23 06:49:30;;;;;;;3.50;1.87;;;24.30;99.90;;;;;;4896604;29;20496;-93
2021/06/23 06:51:58;;;;;;;2.13;1.60;;;23.20;99.90;;;;;;4936203;29;20452;-87
2021/06/23 06:54:25;;;;;;;2.63;2.43;;;23.00;99.90;;;;;;4935786;29;20457;-86
2021/06/23 06:56:52;;;;;;;2.73;2.53;;;;;;;;;;4935334;29;20452;-88
2021/06/23 06:59:19;;;;;;;2.20;1.93;;;22.70;99.90;;;;;;4936377;29;20448;-87
2021/06/23 07:01:46;;;;;;;2.73;2.27;;;23.00;99.90;;;;;;4935464;29;20444;-85
2021/06/23 07:04:14;;;;;;;2.30;2.10;;;22.60;99.90;;;;;;4935379;29;20459;-85
2021/06/23 07:06:42;;;;;;;2.67;2.47;;;21.50;99.90;;;;;;4935387;29;20460;-86
2021/06/23 07:09:09;;;;;;;2.40;2.20;;;22.00;99.90;;;;;;4935798;29;20556;-88
2021/06/23 07:11:36;;;;;;;2.20;2.10;;;21.60;99.90;;;;;;4936270;29;20938;-87
2021/06/23 07:14:03;;;;;;;3.30;2.43;;;21.60;99.90;;;;;;4935531;29;20452;-88
2021/06/23 07:16:30;;;;;;;2.57;2.10;;;20.90;99.90;;;;;;4929960;29;20460;-86
2021/06/23 07:18:57;;;;;;;1.80;1.70;;;21.60;99.90;;;;;;4938526;29;20451;-87
2021/06/23 07:21:24;;;;;;;2.30;2.10;;;;;;;;;;4933890;29;20488;-90
2021/06/23 07:23:54;;;;;;;2.43;2.03;;;21.50;99.90;;;;;;4922602;29;20520;-90
2021/06/23 07:26:21;;;;;;;3.97;2.10;;;22.00;99.90;;;;;;4918828;29;20461;-90
2021/06/23 07:28:50;;;;;;;2.07;1.90;;;22.30;99.90;;;;;;4930784;29;20491;-90
2021/06/23 07:31:23;;;;;;;2.40;1.90;;;22.20;99.90;;;;;;4930168;29;20465;-89
2021/06/23 07:33:53;;;;;;;1.90;1.80;;;22.10;99.90;;;;;;4944287;23;20568;-91
2021/06/23 07:36:36;;;;;;;4.47;1.90;;;22.20;99.90;;;;;;5016564;28;20452;-90
2021/06/23 07:39:08;;;;;;;4.13;2.27;;;22.50;99.90;;;;;;5017233;28;20563;-94
2021/06/23 07:41:35;;;;;;;2.63;1.93;;;;;;;;;;5014220;28;20448;-91
2021/06/23 07:44:02;;;;;;;2.20;2.10;;;22.80;99.90;;;;;;4997769;28;20449;-89
2021/06/23 07:46:34;;;;;;;2.33;2.13;;;23.00;99.90;;;;;;4995734;28;20470;-92
2021/06/23 07:49:01;;;;;;;4.20;2.30;;;22.90;99.90;;;;;;4993298;28;20492;-92
2021/06/23 07:51:40;;;;;;;2.30;2.10;;;23.40;99.90;;;;;;4997959;28;20450;-93
2021/06/23 07:54:23;;;;;;;2.13;1.70;;;23.70;99.90;;;;;;4997186;28;20472;-84
2021/06/23 08:01:04;;;;;;;2.10;2.00;;;24.00;99.90;;;;;;4995490;28;20472;-88
2021/06/23 08:10:54;;;;;;;3.00;1.57;;;22.70;99.90;;;;;;4987476;28;20495;-91
2021/06/23 08:13:21;;;;;;;4.87;1.90;;;22.60;99.90;;;;;;4996766;28;20456;-86
2021/06/23 08:15:49;;;;;;;3.80;1.80;;;22.40;99.90;;;;;;4996246;28;20449;-87
2021/06/23 08:18:20;;;;;;;12.20;2.33;;;22.50;99.90;;;;;;4991156;28;20937;-91
2021/06/23 08:20:47;;;;;;;2.27;2.00;;;22.80;99.90;;;;;;4994709;28;20520;-85
2021/06/23 08:23:15;;;;;;;2.57;1.70;;;23.30;99.90;;;;;;4995487;28;20460;-87
2021/06/23 08:25:42;;;;;;;3.47;2.60;;;23.90;99.90;;;;;;4994678;28;20445;-86
2021/06/23 08:28:10;;;;;;;3.50;3.13;;;24.10;99.90;;;;;;4994612;28;20516;-86
2021/06/23 08:30:37;;;;;;;3.27;2.97;;;23.80;99.90;;;;;;4995413;28;20496;-87
2021/06/23 08:33:04;;;;;;;2.87;2.57;;;24.30;99.90;;;;;;5001296;28;20476;-86
2021/06/23 08:35:31;;;;;;;2.57;2.37;;;24.30;99.90;;;;;;5011428;28;20480;-86
2021/06/23 08:37:58;;;;;;;3.23;2.50;;;25.30;99.90;;;;;;5006783;28;20441;-90
2021/06/23 08:40:25;;;;;;;4.50;2.30;;;26.00;99.90;;;;;;5015221;28;20480;-92
2021/06/23 08:42:52;;;;;;;2.50;2.30;;;26.10;99.90;;;;;;5014830;28;20452;-90
2021/06/23 08:45:21;;;;;;;2.53;1.90;;;25.50;99.90;;;;;;5015211;28;20458;-90
2021/06/23 08:47:50;;;;;;;2.63;2.40;;;24.90;99.90;;;;;;5015206;28;20448;-86
2021/06/23 08:50:18;;;;;;;3.23;2.23;;;24.10;99.90;;;;;;5011252;28;21090;-91
2021/06/23 08:52:45;;;;;;;2.90;2.30;;;23.70;99.90;;;;;;4994013;28;20449;-87
2021/06/23 08:55:12;;;;;;;2.40;2.20;;;23.30;99.90;;;;;;4995195;28;20475;-89
2021/06/23 08:57:39;;;;;;;3.20;2.20;;;23.40;99.90;;;;;;4994038;28;20452;-90
2021/06/23 09:00:08;;;;;;;2.43;2.20;;;23.20;99.90;;;;;;4994629;28;20457;-90
2021/06/23 09:02:37;;;;;;;2.20;2.00;;;23.10;99.90;;;;;;4995500;28;20446;-87
2021/06/23 09:05:07;;;;;;;2.53;2.17;;;22.90;99.90;;;;;;4994835;28;20446;-86
2021/06/23 09:07:39;;;;;;;4.30;2.27;;;22.10;99.90;;;;;;4993385;28;20472;-86
2021/06/23 09:10:08;;;;;;;5.60;2.80;;;22.30;99.90;;;;;;4994525;28;20493;-88
2021/06/23 09:12:35;;;;;;;3.80;2.43;;;;;;;;;;4993797;28;20449;-89
2021/06/23 09:15:02;;;;;;;4.10;2.60;;;22.20;99.90;;;;;;4995152;28;20464;-90
2021/06/23 09:17:29;;;;;;;4.27;3.10;;;22.20;99.90;;;;;;4996114;28;20469;-90
2021/06/23 09:19:59;;;;;;;3.60;2.87;;;22.00;99.90;;;;;;4995479;28;20433;-88
2021/06/23 09:22:39;;;;;;;2.57;2.37;;;22.10;99.90;;;;;;4994844;28;20476;-86
2021/06/23 09:25:24;;;;;;;3.63;2.93;;;22.10;99.90;;;;;;4995065;28;20512;-91
2021/06/23 09:27:54;;;;;;;2.40;2.17;;;21.90;99.90;;;;;;5005149;28;20459;-87
2021/06/23 09:30:30;;;;;;;4.57;2.60;;;22.10;99.90;;;;;;4992425;28;20496;-87
2021/06/23 09:33:18;;;;;;;2.97;2.77;;;22.10;99.90;;;;;;5002915;28;20529;-88
2021/06/23 09:35:48;;;;;;;3.10;2.80;;;21.80;99.90;;;;;;5012586;28;20479;-86
2021/06/23 09:38:37;;;;;;;3.20;2.37;;;22.00;99.90;;;;;;5013754;28;20457;-87
2021/06/23 09:41:05;;;;;;;4.40;2.73;;;21.90;99.90;;;;;;5012638;28;20463;-86
2021/06/23 09:43:40;;;;;;;5.10;3.20;;;21.40;99.90;;;;;;5013566;28;20443;-85
2021/06/23 09:46:15;;;;;;;4.60;2.73;;;21.40;99.90;;;;;;4999981;28;20448;-93
2021/06/23 09:48:42;;;;;;;4.57;2.80;;;;;;;;;;4996495;28;20457;-93
2021/06/23 09:51:19;;;;;;;3.27;2.80;;;21.40;99.90;;;;;;4996650;28;20984;-93
2021/06/23 09:53:47;;;;;;;2.50;2.30;;;21.70;99.90;;;;;;4996857;28;20452;-95
2021/06/23 09:56:29;;;;;;;7.10;3.40;;;22.10;99.90;;;;;;4996018;28;20442;-94
2021/06/23 09:58:57;;;;;;;4.67;2.90;;;22.00;99.90;;;;;;5002294;28;20457;-94
2021/06/23 10:01:25;;;;;;;4.50;2.93;;;22.40;99.90;;;;;;4999566;28;20446;-93
2021/06/23 10:04:06;;;;;;;3.73;2.43;;;22.60;99.90;;;;;;5004549;23;20453;-92
2021/06/23 10:06:49;;;;;;;3.43;2.70;;;22.60;99.90;;;;;;5023846;23;20481;-93
2021/06/23 10:09:23;;;;;;;5.13;2.77;;;23.10;99.90;;;;;;4998310;28;20444;-92
2021/06/23 10:12:01;;;;;;;8.00;2.83;;;22.90;99.90;;;;;;4993919;28;20524;-92
2021/06/23 10:14:29;;;;;;;3.80;2.87;;;;;;;;;;4980049;28;20458;-93
2021/06/23 10:17:00;;;;;;;3.20;2.70;;;22.80;99.90;;;;;;4984622;28;20442;-95
2021/06/23 10:19:52;;;;;;;2.70;2.50;;;23.00;99.90;;;;;;5029048;23;20905;-93
2021/06/23 10:22:21;;;;;;;4.57;2.70;;;23.30;99.90;;;;;;5008881;28;20530;-93
2021/06/23 10:24:51;;;;;;;2.23;1.70;;;24.00;99.90;;;;;;4995219;28;20480;-92
2021/06/23 10:27:19;;;;;;;2.97;1.70;;;;;;;;;;4997417;28;20875;-92
2021/06/23 10:29:46;;;;;;;2.90;1.70;;;26.10;99.90;;;;;;4993803;28;20472;-90
2021/06/23 10:32:14;;;;;;;2.23;1.67;;;;;;;;;;4995724;28;20461;-92
2021/06/23 10:34:43;;;;;;;3.63;2.30;;;26.60;99.90;;;;;;4980541;28;20493;-90
2021/06/23 10:37:10;;;;;;;2.30;1.50;;;;;;;;;;4977366;28;20457;-93
2021/06/23 10:39:40;;;;;;;1.53;1.43;;;26.40;99.90;;;;;;4980923;28;20431;-93
2021/06/23 10:42:09;;;;;;;2.80;1.40;;;26.70;99.90;;;;;;4974479;28;20506;-93
2021/06/23 10:44:42;;;;;;;3.63;1.53;;;27.00;98.60;;;;;;4988269;28;20469;-92
2021/06/23 10:47:11;;;;;;;2.80;1.93;;;27.20;98.80;;;;;;5004029;28;20438;-93
2021/06/23 10:49:39;;;;;;;1.67;1.57;;;26.50;99.90;;;;;;4995547;28;20480;-90
2021/06/23 10:52:42;;;;;;;0.90;0.80;;;27.60;99.90;;;;;;4997380;28;20464;-92
2021/06/23 10:55:45;;;;;;;1.47;0.90;;;27.70;99.50;;;;;;4938093;28;20546;-90
2021/06/23 10:58:14;;;;;;;0.80;0.70;;;27.60;99.90;;;;;;4992624;28;20480;-91
2021/06/23 11:00:44;;;;;;;2.23;1.97;;;26.80;91.90;;;;;;4998413;28;20456;-93
2021/06/23 11:03:14;;;;;;;0.70;0.70;;;26.50;99.90;;;;;;5000178;28;20862;-92
2021/06/23 11:05:46;;;;;;;0.80;0.70;;;27.40;99.90;;;;;;4998679;28;20813;-92
2021/06/23 11:08:29;;;;;;;1.53;0.97;;;26.60;99.90;;;;;;4998429;28;20446;-94
2021/06/23 11:11:37;;;;;;;0.77;0.60;;;26.60;99.90;;;;;;4996950;28;20491;-92
2021/06/23 11:14:17;;;;;;;1.67;0.50;;;26.80;94.00;;;;;;5000075;28;20453;-89
2021/06/23 11:16:44;;;;;;;1.27;0.93;;;;;;;;;;4999578;28;20467;-92
2021/06/23 11:19:11;;;;;;;1.03;0.60;;;27.50;96.40;;;;;;4998769;28;20513;-91
2021/06/23 11:21:46;;;;;;;0.60;0.50;;;27.20;97.30;;;;;;5000266;28;20477;-91
2021/06/23 11:24:15;;;;;;;1.10;0.70;;;26.40;88.30;;;;;;4998473;28;20460;-86
2021/06/23 11:26:53;;;;;;;0.60;0.57;;;26.80;96.70;;;;;;4998747;28;20448;-83
2021/06/23 11:29:39;;;;;;;0.70;0.60;;;26.30;99.80;;;;;;4999367;28;20464;-91
2021/06/23 11:32:08;;;;;;;0.60;0.50;;;26.50;88.30;;;;;;4998073;28;20480;-91
2021/06/23 11:34:52;;;;;;;1.47;0.53;;;26.70;98.70;;;;;;5000256;28;20449;-93
2021/06/23 11:37:21;;;;;;;1.37;0.50;;;26.90;87.30;;;;;;5002474;28;20442;-89
2021/06/23 11:39:48;;;;;;;1.10;0.67;;;;;;;;;;4998179;28;20449;-91
2021/06/23 11:42:17;;;;;;;0.70;0.40;;;;;;;;;;4997207;28;20457;-92
2021/06/23 11:44:45;;;;;;;1.00;0.63;;;26.60;89.60;;;;;;4996089;28;20965;-91
2021/06/23 11:47:13;;;;;;;1.10;0.70;;;;;;;;;;4998135;28;20460;-93
2021/06/23 11:49:42;;;;;;;0.80;0.80;;;;;;;;;;5003400;28;21011;-92
2021/06/23 11:52:10;;;;;;;0.77;0.53;;;25.70;99.90;;;;;;4998673;28;20449;-93
2021/06/23 11:54:37;;;;;;;2.87;0.60;;;25.40;99.90;;;;;;5001616;28;20544;-89
2021/06/23 11:57:04;;;;;;;0.70;0.47;;;25.90;99.90;;;;;;5005939;28;20445;-93
2021/06/23 11:59:32;;;;;;;0.80;0.60;;;;;;;;;;4997618;28;20464;-88
2021/06/23 12:02:00;;;;;;;0.70;0.60;;;26.00;91.30;;;;;;4995337;28;20456;-85
2021/06/23 12:04:29;;;;;;;1.10;0.70;;;25.90;99.90;;;;;;4995521;28;20457;-89
2021/06/23 12:06:56;;;;;;;0.80;0.60;;;;;;;;;;4995673;28;20457;-90
2021/06/23 12:09:23;;;;;;;0.60;0.60;;;;;;;;;;4997015;28;20456;-93
2021/06/23 12:11:50;;;;;;;0.80;0.70;;;;;;;;;;4997583;28;20485;-87
2021/06/23 12:14:17;;;;;;;1.73;0.70;;;;;;;;;;4996319;28;20469;-91
2021/06/23 12:16:45;;;;;;;0.90;0.50;;;;;;;;;;4996580;28;20453;-88
2021/06/23 12:19:13;;;;;;;0.60;0.50;;;27.40;90.00;;;;;;4997330;28;20530;-85
2021/06/23 12:21:40;;;;;;;1.23;0.60;;;;;;;;;;4996280;28;20457;-87
2021/06/23 12:24:08;;;;;;;0.70;0.60;;;;;;;;;;4997800;28;20460;-91
2021/06/23 12:26:35;;;;;;;0.70;0.70;;;;;;;;;;4992916;28;20959;-89
2021/06/23 12:29:03;;;;;;;1.47;0.60;;;;;;;;;;4998199;28;20445;-90
2021/06/23 12:31:30;;;;;;;2.13;1.93;;;;;;;;;;4998810;28;20516;-91
2021/06/23 12:33:57;;;;;;;1.57;0.70;;;;;;;;;;4997129;28;20446;-87
2021/06/23 12:36:26;;;;;;;0.60;0.50;;;26.30;99.90;;;;;;4998338;28;20814;-94
2021/06/23 12:38:54;;;;;;;0.97;0.73;;;;;;;;;;4999054;28;20521;-91
2021/06/23 12:41:21;;;;;;;4.97;1.00;;;;;;;;;;5000440;28;20457;-92
2021/06/23 12:43:48;;;;;;;0.63;0.60;;;;;;;;;;4997775;28;20437;-91
2021/06/23 12:46:16;;;;;;;0.70;0.60;;;27.30;92.50;;;;;;4997236;28;20441;-91
2021/06/23 12:48:43;;;;;;;2.33;1.00;;;;;;;;;;4995872;28;20454;-86
2021/06/23 12:51:10;;;;;;;1.00;0.80;;;;;;;;;;4995548;28;20503;-86
2021/06/23 12:53:38;;;;;;;1.23;0.87;;;26.30;92.20;;;;;;4995681;28;20545;-84
2021/06/23 12:56:06;;;;;;;0.80;0.67;;;;;;;;;;4994618;28;20457;-86
2021/06/23 12:58:33;;;;;;;1.83;0.73;;;;;;;;;;4987196;28;20461;-87
2021/06/23 13:01:02;;;;;;;1.00;0.63;;;;;;;;;;4975361;28;20495;-89
2021/06/23 13:03:29;;;;;;;1.13;0.90;;;;;;;;;;4975713;28;20450;-87
2021/06/23 13:05:59;;;;;;;1.67;0.90;;;;;;;;;;4975352;28;20450;-88
2021/06/23 13:08:26;;;;;;;0.80;0.70;;;;;;;;;;4975661;28;20836;-87
2021/06/23 13:10:54;;;;;;;1.10;1.00;;;27.00;92.90;;;;;;4974574;28;21013;-87
2021/06/23 13:13:22;;;;;;;0.80;0.80;;;25.40;93.80;;;;;;4974578;28;20481;-87
2021/06/23 13:15:49;;;;;;;2.37;1.10;;;;;;;;;;4976079;28;20455;-91
2021/06/23 13:18:16;;;;;;;2.10;1.43;;;;;;;;;;4976109;28;20482;-89
2021/06/23 13:20:43;;;;;;;1.77;1.37;;;;;;;;;;4976035;28;20479;-95
2021/06/23 13:23:10;;;;;;;3.70;1.50;;;;;;;;;;4976361;28;20446;-86
2021/06/23 13:25:38;;;;;;;2.83;1.63;;;;;;;;;;4974608;28;20450;-91
2021/06/23 13:28:06;;;;;;;1.70;1.60;;;23.80;99.90;;;;;;4975566;28;20453;-89
2021/06/23 13:30:34;;;;;;;3.20;1.87;;;;;;;;;;4975465;28;20493;-91
2021/06/23 13:33:01;;;;;;;1.60;1.50;;;;;;;;;;4975327;28;20822;-91
2021/06/23 13:35:28;;;;;;;1.40;1.30;;;;;;;;;;4975941;28;20520;-90
2021/06/23 13:37:56;;;;;;;2.43;1.20;;;;;;;;;;4975639;28;20454;-91